Archer, Wyoming
Current Conditions -  °F | °C
As of 3:53 AM on Thursday 23 Oct 2014 (Local Time) from KCYS Reporting Station
Clear Clear  
Wind Chill: 32°   Ceiling: Unl
Heat Index: 37°   Visibility: 10mi
Dew Point: 30°   Wind: 7mph
Humidity: 76%   Direction: 260°W
Pressure: 30.15"   Gusts: NA
Location:  41.4091°N, 104.861°W
Report Text: KCYS 230953Z AUTO 26006KT 10SM CLR 03/M01 A3015 RMK AO2 SLP169 T00281011
Loading
Personal Weather Stations






























Interactive Weather Map
Tropical Storm Tracking
New forecast layout! Learn more

10-Day Weather Forecast

Advertisements
Track Severe Weather on mobile